createdAt,value
2022-10-19T00:00:30.599Z,11.03
2022-10-19T00:01:20.397Z,10.99
2022-10-19T00:02:08.211Z,10.96
2022-10-19T00:02:55.089Z,10.90
2022-10-19T00:03:42.914Z,10.87
2022-10-19T00:04:30.079Z,10.86
2022-10-19T00:05:17.364Z,10.84
2022-10-19T00:06:17.749Z,10.84
2022-10-19T00:07:04.680Z,10.78
2022-10-19T00:07:51.621Z,10.72
2022-10-19T00:08:38.653Z,10.69
2022-10-19T00:09:25.560Z,10.68
2022-10-19T00:10:12.651Z,10.68
2022-10-19T00:11:01.750Z,10.65
2022-10-19T00:11:50.511Z,10.62
2022-10-19T00:12:37.829Z,10.56
2022-10-19T00:13:24.890Z,10.47
2022-10-19T00:14:17.121Z,10.45
2022-10-19T00:15:05.670Z,10.44
2022-10-19T00:15:52.620Z,10.49
2022-10-19T00:16:39.665Z,10.48
2022-10-19T00:17:26.841Z,10.53
2022-10-19T00:18:13.738Z,10.50
2022-10-19T00:19:02.386Z,10.52
2022-10-19T00:19:49.400Z,10.46
2022-10-19T00:20:37.152Z,10.49
2022-10-19T00:21:24.231Z,10.53
2022-10-19T00:22:13.183Z,10.56
2022-10-19T00:23:01.041Z,10.62
2022-10-19T00:23:48.861Z,10.61
2022-10-19T00:24:35.810Z,10.55
2022-10-19T00:25:22.690Z,10.57
2022-10-19T00:26:10.025Z,10.58
2022-10-19T00:26:56.879Z,10.65
2022-10-19T00:27:44.059Z,10.56
2022-10-19T00:28:31.511Z,10.53
2022-10-19T00:29:18.490Z,10.47
2022-10-19T00:30:06.139Z,10.44
2022-10-19T00:30:53.182Z,10.39
2022-10-19T00:31:40.761Z,10.41
2022-10-19T00:32:27.871Z,10.49
2022-10-19T00:33:14.865Z,10.61
2022-10-19T00:34:01.961Z,10.58
2022-10-19T00:34:48.950Z,10.59
2022-10-19T00:35:40.769Z,10.60
2022-10-19T00:36:28.967Z,10.55
2022-10-19T00:37:15.899Z,10.55
2022-10-19T00:38:02.871Z,10.53
2022-10-19T00:38:49.860Z,10.51
2022-10-19T00:39:36.825Z,10.49
2022-10-19T00:40:23.782Z,10.51
2022-10-19T00:41:10.832Z,10.52
2022-10-19T00:41:57.690Z,10.48
2022-10-19T00:42:44.740Z,10.49
2022-10-19T00:43:31.840Z,10.53
2022-10-19T00:44:19.199Z,10.55
2022-10-19T00:45:15.572Z,10.50
2022-10-19T00:46:02.490Z,10.48
2022-10-19T00:46:49.489Z,10.49
2022-10-19T00:47:36.461Z,10.55
2022-10-19T00:48:26.964Z,10.56
2022-10-19T00:49:23.906Z,10.63
2022-10-19T00:50:11.418Z,10.53
2022-10-19T00:51:00.420Z,10.54
2022-10-19T00:51:51.910Z,10.55
2022-10-19T00:52:38.843Z,10.61
2022-10-19T00:53:29.342Z,10.61
2022-10-19T00:54:16.418Z,10.65
2022-10-19T00:55:03.875Z,10.60
2022-10-19T00:55:50.950Z,10.57
2022-10-19T00:56:41.669Z,10.56
2022-10-19T00:57:30.889Z,10.53
2022-10-19T00:58:17.900Z,10.53
2022-10-19T00:59:05.761Z,10.55
2022-10-19T00:59:52.711Z,10.55
2022-10-19T01:00:39.916Z,10.55
2022-10-19T01:01:27.985Z,10.57
2022-10-19T01:02:14.842Z,10.55
2022-10-19T01:03:01.913Z,10.59
2022-10-19T01:03:49.240Z,10.64
2022-10-19T01:04:38.894Z,10.64
2022-10-19T01:05:26.806Z,10.56
2022-10-19T01:06:15.308Z,10.54
2022-10-19T01:07:04.273Z,10.48
2022-10-19T01:07:51.330Z,10.50
2022-10-19T01:08:38.330Z,10.51
2022-10-19T01:09:25.153Z,10.53
2022-10-19T01:10:12.580Z,10.42
2022-10-19T01:11:37.832Z,10.42
2022-10-19T01:12:58.999Z,10.43
2022-10-19T01:14:00.075Z,10.49
2022-10-19T01:14:49.443Z,10.54
2022-10-19T01:17:04.800Z,10.53
2022-10-19T01:18:25.460Z,10.55
2022-10-19T01:19:49.860Z,10.58
2022-10-19T01:20:52.349Z,10.60
2022-10-19T01:21:48.116Z,10.66
2022-10-19T01:23:11.861Z,10.71
2022-10-19T01:24:18.229Z,10.78
2022-10-19T01:25:31.052Z,10.81
2022-10-19T01:26:52.581Z,10.92
2022-10-19T01:27:46.751Z,10.91
2022-10-19T01:28:45.187Z,10.97
2022-10-19T01:29:56.861Z,10.97
2022-10-19T01:30:56.070Z,10.94
2022-10-19T01:32:00.671Z,10.97
2022-10-19T01:33:04.193Z,10.97
2022-10-19T01:34:10.999Z,10.98
2022-10-19T01:35:31.049Z,11.04
2022-10-19T01:36:24.209Z,11.06
2022-10-19T01:37:22.791Z,11.16
2022-10-19T01:38:25.657Z,11.20
2022-10-19T01:39:25.610Z,11.31
2022-10-19T01:40:40.090Z,11.35
2022-10-19T01:42:04.509Z,11.39
2022-10-19T01:43:04.749Z,11.49
2022-10-19T01:44:01.662Z,11.53
2022-10-19T01:44:58.880Z,11.59
2022-10-19T01:45:48.129Z,11.63
2022-10-19T01:46:39.289Z,11.68
2022-10-19T01:47:44.191Z,11.74
2022-10-19T01:48:35.260Z,11.79
2022-10-19T01:49:40.430Z,11.89
2022-10-19T01:50:40.181Z,11.91
2022-10-19T01:51:31.279Z,11.94
2022-10-19T01:52:20.016Z,11.94
2022-10-19T01:53:08.462Z,11.94
2022-10-19T01:53:58.441Z,11.96
2022-10-19T01:54:49.758Z,11.99
2022-10-19T01:55:41.051Z,12.06
2022-10-19T01:56:28.620Z,12.08
2022-10-19T01:57:23.156Z,12.04
2022-10-19T01:58:13.790Z,12.08
2022-10-19T01:59:04.091Z,12.12
2022-10-19T01:59:51.902Z,12.15
2022-10-19T02:00:41.457Z,12.19
2022-10-19T02:01:31.053Z,12.22
2022-10-19T02:02:18.952Z,12.25
2022-10-19T02:03:06.933Z,12.25
2022-10-19T02:03:54.550Z,12.28
2022-10-19T02:04:41.809Z,12.31
2022-10-19T02:05:32.460Z,12.30
2022-10-19T02:06:19.999Z,12.32
2022-10-19T02:07:07.700Z,12.32
2022-10-19T02:08:01.468Z,12.35
2022-10-19T02:08:50.990Z,12.36
2022-10-19T02:09:37.979Z,12.38
2022-10-19T02:10:25.361Z,12.41
2022-10-19T02:11:12.451Z,12.44
2022-10-19T02:12:02.508Z,12.45
2022-10-19T02:12:49.660Z,12.47
2022-10-19T02:13:37.469Z,12.48
2022-10-19T02:14:29.063Z,12.49
2022-10-19T02:15:20.969Z,12.51
2022-10-19T02:16:13.169Z,12.55
2022-10-19T02:17:04.019Z,12.57
2022-10-19T02:17:53.550Z,12.59
2022-10-19T02:18:45.341Z,12.60
2022-10-19T02:19:32.371Z,12.59
2022-10-19T02:20:20.771Z,12.59
2022-10-19T02:21:08.190Z,12.66
2022-10-19T02:21:55.180Z,12.68
2022-10-19T02:22:42.622Z,12.64
2022-10-19T02:23:29.670Z,12.63
2022-10-19T02:24:16.520Z,12.66
2022-10-19T02:25:03.843Z,12.68
2022-10-19T02:25:50.899Z,12.73
2022-10-19T02:26:38.480Z,12.70
2022-10-19T02:27:25.460Z,12.70
2022-10-19T02:28:12.629Z,12.68
2022-10-19T02:28:59.770Z,12.68
2022-10-19T02:29:46.871Z,12.71
2022-10-19T02:30:34.012Z,12.72
2022-10-19T02:31:21.229Z,12.73
2022-10-19T02:32:10.550Z,12.76
2022-10-19T02:32:57.491Z,12.77
2022-10-19T02:33:44.690Z,12.77
2022-10-19T02:34:31.850Z,12.79
2022-10-19T02:35:18.779Z,12.84
2022-10-19T02:36:06.033Z,12.88
2022-10-19T02:36:53.080Z,12.90
2022-10-19T02:37:40.631Z,12.91
2022-10-19T02:38:27.849Z,12.89
2022-10-19T02:39:14.818Z,12.89
2022-10-19T02:40:01.802Z,12.95
2022-10-19T02:41:07.386Z,13.04
2022-10-19T02:42:18.736Z,13.07
2022-10-19T02:43:10.822Z,13.02
2022-10-19T02:44:01.770Z,13.00
2022-10-19T02:44:53.851Z,12.99
2022-10-19T02:45:48.960Z,13.01
2022-10-19T02:46:44.847Z,13.00
2022-10-19T02:47:36.226Z,12.98
2022-10-19T02:48:25.230Z,12.98
2022-10-19T02:49:12.839Z,13.01
2022-10-19T02:49:59.763Z,13.01
2022-10-19T02:50:50.170Z,13.00
2022-10-19T02:51:39.580Z,13.00
2022-10-19T02:52:26.552Z,12.98
2022-10-19T02:53:14.283Z,13.03
2022-10-19T02:54:04.257Z,13.08
2022-10-19T02:54:52.280Z,13.13
2022-10-19T02:55:42.280Z,13.13
2022-10-19T02:56:29.390Z,13.13
2022-10-19T02:57:23.129Z,13.17
2022-10-19T02:58:10.385Z,13.17
2022-10-19T02:58:57.446Z,13.19
2022-10-19T02:59:44.498Z,13.19
2022-10-19T03:00:31.550Z,13.22
2022-10-19T03:01:18.567Z,13.28
2022-10-19T03:02:05.538Z,13.34
2022-10-19T03:02:52.493Z,13.40
2022-10-19T03:03:39.349Z,13.34
2022-10-19T03:04:26.309Z,13.34
2022-10-19T03:05:13.270Z,13.30
2022-10-19T03:06:00.183Z,13.34
2022-10-19T03:06:47.131Z,13.36
2022-10-19T03:07:34.253Z,13.40
2022-10-19T03:08:21.320Z,13.37
2022-10-19T03:09:08.621Z,13.41
2022-10-19T03:09:55.564Z,13.40
2022-10-19T03:10:42.630Z,13.40
2022-10-19T03:11:29.509Z,13.48
2022-10-19T03:12:16.520Z,13.51
2022-10-19T03:13:03.539Z,13.56
2022-10-19T03:13:50.444Z,13.54
2022-10-19T03:14:37.365Z,13.57
2022-10-19T03:15:27.491Z,13.52
2022-10-19T03:16:14.620Z,13.49
2022-10-19T03:17:01.552Z,13.46
2022-10-19T03:17:48.491Z,13.54
2022-10-19T03:18:35.498Z,13.55
2022-10-19T03:19:22.420Z,13.61
2022-10-19T03:20:10.708Z,13.60
2022-10-19T03:21:05.711Z,13.59
2022-10-19T03:21:52.641Z,13.59
2022-10-19T03:22:39.526Z,13.59
2022-10-19T03:23:26.450Z,13.58
2022-10-19T03:24:13.391Z,13.67
2022-10-19T03:25:00.360Z,13.72
2022-10-19T03:25:47.241Z,13.73
2022-10-19T03:26:34.250Z,13.77
2022-10-19T03:27:21.329Z,13.72
2022-10-19T03:28:08.249Z,13.71
2022-10-19T03:28:55.223Z,13.76
2022-10-19T03:29:42.150Z,13.78
2022-10-19T03:30:29.170Z,13.85
2022-10-19T03:31:16.000Z,13.81
2022-10-19T03:32:03.083Z,13.78
2022-10-19T03:32:50.059Z,13.82
2022-10-19T03:33:37.072Z,13.81
2022-10-19T03:34:24.011Z,13.81
2022-10-19T03:35:10.931Z,13.80
2022-10-19T03:36:16.391Z,13.79
2022-10-19T03:37:03.407Z,13.81
2022-10-19T03:37:50.320Z,13.79
2022-10-19T03:38:37.191Z,13.82
2022-10-19T03:39:24.141Z,13.86
2022-10-19T03:40:11.211Z,13.86
2022-10-19T03:40:58.181Z,13.83
2022-10-19T03:41:45.509Z,13.85
2022-10-19T03:42:32.579Z,13.83
2022-10-19T03:43:19.509Z,13.82
2022-10-19T03:44:07.472Z,13.82
2022-10-19T03:44:54.358Z,13.75
2022-10-19T03:45:41.270Z,13.89
2022-10-19T03:46:28.230Z,13.82
2022-10-19T03:47:15.301Z,13.83
2022-10-19T03:48:02.330Z,13.82
2022-10-19T03:48:49.728Z,13.81
2022-10-19T03:49:38.120Z,13.87
2022-10-19T03:50:27.030Z,13.87
2022-10-19T03:51:16.129Z,13.83
2022-10-19T03:52:03.130Z,13.88
2022-10-19T03:52:50.346Z,13.85
2022-10-19T03:53:37.910Z,13.85
2022-10-19T03:54:27.300Z,13.82
2022-10-19T03:55:16.302Z,13.77
2022-10-19T03:56:09.171Z,13.76
2022-10-19T03:56:56.039Z,13.74
2022-10-19T03:57:43.030Z,13.72
2022-10-19T03:58:29.980Z,13.68
2022-10-19T03:59:17.131Z,13.70
2022-10-19T04:00:08.429Z,13.72
2022-10-19T04:00:55.484Z,13.62
2022-10-19T04:01:45.122Z,13.52
2022-10-19T04:02:32.180Z,13.50
2022-10-19T04:03:19.129Z,13.43
2022-10-19T04:04:10.690Z,13.43
2022-10-19T04:04:57.670Z,13.46
2022-10-19T04:05:44.668Z,13.46
2022-10-19T04:06:33.833Z,13.47
2022-10-19T04:07:20.774Z,13.38
2022-10-19T04:08:07.785Z,13.31
2022-10-19T04:08:55.180Z,13.28
2022-10-19T04:09:42.090Z,13.29
2022-10-19T04:10:31.545Z,13.26
2022-10-19T04:11:21.200Z,13.26
2022-10-19T04:12:08.060Z,13.16
2022-10-19T04:12:54.980Z,13.15
2022-10-19T04:13:42.039Z,13.10
2022-10-19T04:14:32.508Z,13.04
2022-10-19T04:15:19.860Z,13.03
2022-10-19T04:16:07.718Z,13.04
2022-10-19T04:16:54.780Z,12.97
2022-10-19T04:17:43.132Z,12.89
2022-10-19T04:18:31.771Z,12.79
2022-10-19T04:19:18.711Z,12.76
2022-10-19T04:20:06.282Z,12.70
2022-10-19T04:20:59.950Z,12.65
2022-10-19T04:21:49.154Z,12.65
2022-10-19T04:22:36.021Z,12.65
2022-10-19T04:23:22.941Z,12.63
2022-10-19T04:24:14.901Z,12.57
2022-10-19T04:25:01.862Z,12.53
2022-10-19T04:25:48.741Z,12.51
2022-10-19T04:26:40.750Z,12.49
2022-10-19T04:27:27.732Z,12.51
2022-10-19T04:28:14.649Z,12.46
2022-10-19T04:29:02.285Z,12.39
2022-10-19T04:29:49.180Z,12.35
2022-10-19T04:30:36.169Z,12.34
2022-10-19T04:31:23.061Z,12.34
2022-10-19T04:32:09.950Z,12.29
2022-10-19T04:32:56.999Z,12.29
2022-10-19T04:33:43.970Z,12.23
2022-10-19T04:34:30.844Z,12.24
2022-10-19T04:35:17.739Z,12.23
2022-10-19T04:36:07.152Z,12.20
2022-10-19T04:36:54.200Z,12.27
2022-10-19T04:37:41.089Z,12.18
2022-10-19T04:38:29.199Z,12.15
2022-10-19T04:39:16.200Z,12.12
2022-10-19T04:40:04.100Z,12.04
2022-10-19T04:40:51.130Z,12.02
2022-10-19T04:41:38.900Z,12.02
2022-10-19T04:42:25.769Z,11.97
2022-10-19T04:43:12.734Z,11.94
2022-10-19T04:44:01.501Z,11.92
2022-10-19T04:44:48.382Z,11.88
2022-10-19T04:45:35.991Z,11.83
2022-10-19T04:46:22.921Z,11.85
2022-10-19T04:47:09.761Z,11.80
2022-10-19T04:47:59.730Z,11.80
2022-10-19T04:48:48.049Z,11.79
2022-10-19T04:49:35.000Z,11.80
2022-10-19T04:50:22.004Z,11.76
2022-10-19T04:51:10.030Z,11.71
2022-10-19T04:51:56.910Z,11.68
2022-10-19T04:52:45.469Z,11.65
2022-10-19T04:53:33.384Z,11.62
2022-10-19T04:54:20.321Z,11.61
2022-10-19T04:55:07.551Z,11.57
2022-10-19T04:55:54.510Z,11.55
2022-10-19T04:56:41.491Z,11.51
2022-10-19T04:57:28.439Z,11.54
2022-10-19T04:58:15.471Z,11.53
2022-10-19T04:59:02.489Z,11.55
2022-10-19T04:59:49.530Z,11.50
2022-10-19T05:00:38.793Z,11.49
2022-10-19T05:01:27.669Z,11.44
2022-10-19T05:02:14.550Z,11.43
2022-10-19T05:03:01.528Z,11.38
2022-10-19T05:03:48.927Z,11.28
2022-10-19T05:04:35.849Z,11.30
2022-10-19T05:05:24.539Z,11.30
2022-10-19T05:06:12.510Z,11.28
2022-10-19T05:06:59.460Z,11.24
2022-10-19T05:07:49.225Z,11.22
2022-10-19T05:08:37.238Z,11.22
2022-10-19T05:09:24.393Z,11.25
2022-10-19T05:10:14.131Z,11.23
2022-10-19T05:11:06.303Z,11.16
2022-10-19T05:11:53.233Z,11.15
2022-10-19T05:12:40.170Z,11.14
2022-10-19T05:13:26.989Z,11.10
2022-10-19T05:14:13.985Z,11.21
2022-10-19T05:15:00.990Z,11.19
2022-10-19T05:15:58.133Z,11.08
2022-10-19T05:16:45.222Z,11.01
2022-10-19T05:17:33.279Z,11.00
2022-10-19T05:18:20.332Z,11.03
2022-10-19T05:19:07.360Z,10.97
2022-10-19T05:19:54.340Z,10.99
2022-10-19T05:20:41.211Z,10.99
2022-10-19T05:21:29.160Z,10.99
2022-10-19T05:22:16.105Z,10.98
2022-10-19T05:23:06.320Z,11.02
2022-10-19T05:23:55.344Z,11.06
2022-10-19T05:24:42.280Z,11.12
2022-10-19T05:25:29.220Z,11.10
2022-10-19T05:26:18.320Z,11.10
2022-10-19T05:27:05.222Z,11.09
2022-10-19T05:27:53.310Z,11.06
2022-10-19T05:28:40.547Z,11.13
2022-10-19T05:29:28.551Z,11.17
2022-10-19T05:30:15.640Z,11.12
2022-10-19T05:31:11.562Z,11.12
2022-10-19T05:31:58.511Z,11.13
2022-10-19T05:32:45.549Z,11.10
2022-10-19T05:33:32.721Z,11.11
2022-10-19T05:34:19.710Z,11.11
2022-10-19T05:35:06.927Z,11.10
2022-10-19T05:35:53.850Z,11.11
2022-10-19T05:36:41.098Z,11.10
2022-10-19T05:37:28.202Z,11.12
2022-10-19T05:38:15.022Z,11.12
2022-10-19T05:39:06.901Z,11.09
2022-10-19T05:39:55.110Z,11.07
2022-10-19T05:40:49.201Z,11.14
2022-10-19T05:41:38.501Z,11.14
2022-10-19T05:42:25.402Z,11.28
2022-10-19T05:43:12.370Z,11.24
2022-10-19T05:44:01.571Z,11.21
2022-10-19T05:44:48.517Z,11.22
2022-10-19T05:45:35.601Z,11.19
2022-10-19T05:46:22.800Z,11.18
2022-10-19T05:47:09.768Z,11.17
2022-10-19T05:47:56.771Z,11.22
2022-10-19T05:48:43.994Z,11.21
2022-10-19T05:49:31.150Z,11.20
2022-10-19T05:50:18.109Z,11.17
2022-10-19T05:51:06.446Z,11.20
2022-10-19T05:51:53.429Z,11.22
2022-10-19T05:52:40.303Z,11.22
2022-10-19T05:53:28.154Z,11.24
2022-10-19T05:54:15.420Z,11.26
2022-10-19T05:55:02.290Z,11.27
2022-10-19T05:55:49.189Z,11.26
2022-10-19T05:56:36.080Z,11.24
2022-10-19T05:57:23.029Z,11.25
2022-10-19T05:58:09.979Z,11.23
2022-10-19T05:58:58.020Z,11.20
2022-10-19T05:59:44.970Z,11.22
2022-10-19T06:00:31.901Z,11.22
2022-10-19T06:01:20.280Z,11.23
2022-10-19T06:02:07.358Z,11.26
2022-10-19T06:02:58.987Z,11.25
2022-10-19T06:03:47.320Z,11.23
2022-10-19T06:04:34.270Z,11.35
2022-10-19T06:05:21.171Z,11.33
2022-10-19T06:06:08.971Z,11.36
2022-10-19T06:06:55.900Z,11.35
2022-10-19T06:07:42.730Z,11.38
2022-10-19T06:08:29.619Z,11.38
2022-10-19T06:09:16.840Z,11.39
2022-10-19T06:10:04.320Z,11.36
2022-10-19T06:10:51.611Z,11.35
2022-10-19T06:11:40.551Z,11.36
2022-10-19T06:12:27.529Z,11.42
2022-10-19T06:13:15.230Z,11.46
2022-10-19T06:14:06.619Z,11.46
2022-10-19T06:14:53.482Z,11.47
2022-10-19T06:15:40.979Z,11.42
2022-10-19T06:16:29.081Z,11.43
2022-10-19T06:17:16.431Z,11.43
2022-10-19T06:18:07.881Z,11.44
2022-10-19T06:18:55.700Z,11.45
2022-10-19T06:19:42.743Z,11.49
2022-10-19T06:20:29.819Z,11.50
2022-10-19T06:21:18.620Z,11.52
2022-10-19T06:22:05.489Z,11.52
2022-10-19T06:22:52.581Z,11.53
2022-10-19T06:23:39.700Z,11.59
2022-10-19T06:24:26.994Z,11.65
2022-10-19T06:25:17.917Z,11.66
2022-10-19T06:26:09.701Z,11.62
2022-10-19T06:26:56.541Z,11.70
2022-10-19T06:27:43.580Z,11.71
2022-10-19T06:28:30.781Z,11.72
2022-10-19T06:29:17.771Z,11.82
2022-10-19T06:30:05.300Z,11.82
2022-10-19T06:30:52.489Z,11.84
2022-10-19T06:31:39.762Z,11.87
2022-10-19T06:32:26.721Z,11.91
2022-10-19T06:33:13.991Z,11.95
2022-10-19T06:34:01.425Z,11.94
2022-10-19T06:34:49.323Z,11.95
2022-10-19T06:35:37.089Z,11.95
2022-10-19T06:36:26.590Z,11.91
2022-10-19T06:37:13.440Z,11.94
2022-10-19T06:38:00.682Z,12.03
2022-10-19T06:38:48.470Z,12.05
2022-10-19T06:39:35.362Z,12.02
2022-10-19T06:40:22.403Z,12.04
2022-10-19T06:41:10.133Z,12.10
2022-10-19T06:41:57.161Z,12.11
2022-10-19T06:42:44.001Z,12.16
2022-10-19T06:43:31.012Z,12.20
2022-10-19T06:44:18.040Z,12.18
2022-10-19T06:45:10.180Z,12.27
2022-10-19T06:45:57.201Z,12.27
2022-10-19T06:46:44.044Z,12.33
2022-10-19T06:47:33.503Z,12.33
2022-10-19T06:48:20.837Z,12.44
2022-10-19T06:49:07.719Z,12.50
2022-10-19T06:49:54.620Z,12.49
2022-10-19T06:50:41.531Z,12.55
2022-10-19T06:51:30.370Z,12.53
2022-10-19T06:52:17.290Z,12.50
2022-10-19T06:53:04.169Z,12.56
2022-10-19T06:53:55.633Z,12.58
2022-10-19T06:54:43.810Z,12.59
2022-10-19T06:55:30.755Z,12.64
2022-10-19T06:56:17.860Z,12.63
2022-10-19T06:57:04.902Z,12.64
2022-10-19T06:57:52.011Z,12.72
2022-10-19T06:58:39.671Z,12.78
2022-10-19T06:59:27.120Z,12.82
2022-10-19T07:00:14.782Z,13.05
2022-10-19T07:01:02.185Z,13.26
2022-10-19T07:01:49.210Z,13.26
2022-10-19T07:02:36.079Z,13.23
2022-10-19T07:03:24.491Z,13.31
2022-10-19T07:04:11.640Z,13.40
2022-10-19T07:04:59.650Z,13.35
2022-10-19T07:05:55.935Z,13.34
2022-10-19T07:06:42.833Z,13.39
2022-10-19T07:07:29.925Z,13.38
2022-10-19T07:08:16.841Z,13.35
2022-10-19T07:09:04.090Z,13.34
2022-10-19T07:09:51.180Z,13.38
2022-10-19T07:10:38.204Z,13.38
2022-10-19T07:11:25.584Z,13.40
2022-10-19T07:12:12.710Z,13.45
2022-10-19T07:12:59.942Z,13.48
2022-10-19T07:13:46.939Z,13.52
2022-10-19T07:14:38.916Z,13.50
2022-10-19T07:15:25.931Z,13.50
2022-10-19T07:16:21.200Z,13.55
2022-10-19T07:17:08.671Z,13.62
2022-10-19T07:17:55.730Z,13.67
2022-10-19T07:18:43.161Z,13.63
2022-10-19T07:19:30.224Z,13.70
2022-10-19T07:20:17.306Z,13.67
2022-10-19T07:21:09.340Z,13.74
2022-10-19T07:21:56.400Z,13.76
2022-10-19T07:22:43.289Z,13.77
2022-10-19T07:23:31.532Z,13.76
2022-10-19T07:24:18.911Z,13.81
2022-10-19T07:25:06.131Z,13.81
2022-10-19T07:25:54.090Z,13.82
2022-10-19T07:26:41.091Z,13.81
2022-10-19T07:27:28.232Z,13.84
2022-10-19T07:28:15.162Z,13.89
2022-10-19T07:29:03.205Z,13.89
2022-10-19T07:29:50.542Z,13.87
2022-10-19T07:30:39.059Z,13.87
2022-10-19T07:31:27.620Z,13.89
2022-10-19T07:32:14.564Z,13.94
2022-10-19T07:33:01.424Z,13.92
2022-10-19T07:33:52.893Z,13.93
2022-10-19T07:34:39.881Z,13.95
2022-10-19T07:35:27.265Z,13.91
2022-10-19T07:36:14.501Z,13.99
2022-10-19T07:37:01.521Z,14.06
2022-10-19T07:37:48.433Z,14.06
2022-10-19T07:38:36.289Z,14.06
2022-10-19T07:39:23.293Z,14.12
2022-10-19T07:40:10.890Z,14.17
2022-10-19T07:41:12.932Z,14.18
2022-10-19T07:41:59.830Z,14.18
2022-10-19T07:42:46.811Z,14.20
2022-10-19T07:43:34.371Z,14.22
2022-10-19T07:44:21.352Z,14.27
2022-10-19T07:45:08.513Z,14.32
2022-10-19T07:46:06.199Z,14.33
2022-10-19T07:46:53.259Z,14.31
2022-10-19T07:47:40.110Z,14.33
2022-10-19T07:48:27.401Z,14.32
2022-10-19T07:49:19.302Z,14.29
2022-10-19T07:50:06.462Z,14.32
2022-10-19T07:50:53.421Z,14.40
2022-10-19T07:51:40.866Z,14.46
2022-10-19T07:52:29.139Z,14.49
2022-10-19T07:53:16.781Z,14.55
2022-10-19T07:54:04.340Z,14.64
2022-10-19T07:54:51.228Z,14.73
2022-10-19T07:55:38.169Z,14.70
2022-10-19T07:56:27.021Z,14.70
2022-10-19T07:57:14.150Z,14.70
2022-10-19T07:58:02.291Z,14.72
2022-10-19T07:58:51.361Z,14.67
2022-10-19T07:59:38.471Z,14.75
2022-10-19T08:00:25.647Z,14.76
2022-10-19T08:01:41.304Z,14.66
2022-10-19T08:02:39.382Z,14.62
2022-10-19T08:04:59.796Z,14.76
2022-10-19T08:05:47.949Z,14.82
2022-10-19T08:06:35.331Z,14.89
2022-10-19T08:07:22.300Z,14.89
2022-10-19T08:08:09.300Z,15.04
2022-10-19T08:08:56.917Z,15.03
2022-10-19T08:09:59.325Z,15.00
2022-10-19T08:10:46.374Z,14.86
2022-10-19T08:11:34.730Z,14.78
2022-10-19T08:12:21.740Z,14.87
2022-10-19T08:13:08.730Z,14.97
2022-10-19T08:13:56.231Z,15.05
2022-10-19T08:14:43.191Z,15.03
2022-10-19T08:15:30.670Z,15.06
2022-10-19T08:16:28.412Z,15.08
2022-10-19T08:17:17.901Z,15.04
2022-10-19T08:18:04.969Z,15.13
2022-10-19T08:18:53.109Z,15.04
2022-10-19T08:19:43.637Z,14.98
2022-10-19T08:20:30.701Z,15.01
2022-10-19T08:21:18.116Z,14.97
2022-10-19T08:22:05.092Z,14.98
2022-10-19T08:22:56.385Z,15.05
2022-10-19T08:23:45.751Z,15.09
2022-10-19T08:24:33.182Z,15.13
2022-10-19T08:25:20.568Z,15.17
2022-10-19T08:26:07.560Z,15.14
2022-10-19T08:26:55.007Z,15.18
2022-10-19T08:27:41.908Z,15.19
2022-10-19T08:28:28.860Z,15.21
2022-10-19T08:29:18.329Z,15.21
2022-10-19T08:30:05.700Z,15.20
2022-10-19T08:30:58.170Z,15.25
2022-10-19T08:31:46.550Z,15.39
2022-10-19T08:32:33.926Z,15.41
2022-10-19T08:33:21.049Z,15.39
2022-10-19T08:34:08.800Z,15.39
2022-10-19T08:34:55.755Z,15.43
2022-10-19T08:35:42.611Z,15.49
2022-10-19T08:36:31.598Z,15.52
2022-10-19T08:37:40.115Z,15.56
2022-10-19T08:38:26.841Z,15.57
2022-10-19T08:39:14.680Z,15.57
2022-10-19T08:40:01.480Z,15.58
2022-10-19T08:40:48.451Z,15.63
2022-10-19T08:41:41.245Z,15.75
2022-10-19T08:43:10.460Z,15.79
2022-10-19T08:44:00.296Z,15.88
2022-10-19T08:44:47.080Z,15.89
2022-10-19T08:45:43.569Z,15.91
2022-10-19T08:46:42.570Z,15.87
2022-10-19T08:47:51.372Z,15.93
2022-10-19T08:48:39.748Z,15.94
2022-10-19T08:49:27.962Z,15.88
2022-10-19T08:50:32.220Z,15.83
2022-10-19T08:51:19.230Z,15.91
2022-10-19T08:52:10.550Z,15.86
2022-10-19T08:53:32.830Z,15.95
2022-10-19T08:54:19.840Z,15.96
2022-10-19T08:55:20.457Z,15.95
2022-10-19T08:56:51.446Z,15.87
2022-10-19T08:58:04.410Z,15.81
2022-10-19T08:59:15.620Z,15.98
2022-10-19T09:00:35.270Z,16.05
2022-10-19T09:01:41.380Z,16.03
2022-10-19T09:02:43.201Z,15.93
2022-10-19T09:03:54.933Z,16.01
2022-10-19T09:04:47.289Z,16.08
2022-10-19T09:05:42.902Z,16.17
2022-10-19T09:06:43.535Z,16.17
2022-10-19T09:07:32.675Z,16.17
2022-10-19T09:09:53.949Z,16.07
2022-10-19T09:10:43.401Z,16.17
2022-10-19T09:11:37.148Z,16.21
2022-10-19T09:12:58.564Z,16.28
2022-10-19T09:14:04.356Z,16.28
2022-10-19T09:15:01.203Z,16.38
2022-10-19T09:15:50.540Z,16.45
2022-10-19T09:16:37.440Z,16.38
2022-10-19T09:17:25.570Z,16.43
2022-10-19T09:18:25.832Z,16.53
2022-10-19T09:19:18.732Z,16.59
2022-10-19T09:20:20.231Z,16.49
2022-10-19T09:21:30.159Z,16.49
2022-10-19T09:22:30.019Z,16.62
2022-10-19T09:23:36.153Z,16.71
2022-10-19T09:24:47.173Z,16.68
2022-10-19T09:25:35.771Z,16.70
2022-10-19T09:26:26.957Z,16.59
2022-10-19T09:27:21.625Z,16.82
2022-10-19T09:28:36.617Z,17.04
2022-10-19T09:29:27.630Z,17.13
2022-10-19T09:30:23.955Z,17.21
2022-10-19T09:31:17.153Z,17.30
2022-10-19T09:32:06.490Z,17.17
2022-10-19T09:33:00.662Z,17.10
2022-10-19T09:33:52.396Z,17.23
2022-10-19T09:34:45.728Z,17.04
2022-10-19T09:35:36.790Z,16.94
2022-10-19T09:36:39.329Z,17.08
2022-10-19T09:37:32.689Z,17.06
2022-10-19T09:38:20.571Z,17.05
2022-10-19T09:39:14.150Z,17.00
2022-10-19T09:40:01.032Z,17.11
2022-10-19T09:40:47.879Z,17.05
2022-10-19T09:41:34.811Z,16.88
2022-10-19T09:42:30.535Z,16.83
2022-10-19T09:43:21.900Z,16.85
2022-10-19T09:44:08.632Z,17.00
2022-10-19T09:44:55.700Z,17.00
2022-10-19T09:45:48.949Z,17.07
2022-10-19T09:47:40.464Z,17.15
2022-10-19T09:48:30.209Z,17.14
2022-10-19T09:49:17.111Z,17.09
2022-10-19T09:50:07.078Z,17.06
2022-10-19T09:50:59.709Z,17.15
2022-10-19T09:51:51.916Z,17.27
2022-10-19T09:52:40.121Z,17.07
2022-10-19T09:53:27.700Z,17.22
2022-10-19T09:54:33.093Z,17.36
2022-10-19T09:55:42.575Z,17.38
2022-10-19T09:56:29.802Z,17.21
2022-10-19T09:57:22.201Z,17.32
2022-10-19T09:58:15.633Z,17.41
2022-10-19T09:59:02.860Z,17.41
2022-10-19T09:59:52.979Z,17.48
2022-10-19T10:00:45.112Z,17.39
2022-10-19T10:01:43.510Z,17.35
2022-10-19T10:02:33.059Z,17.36
2022-10-19T10:03:43.736Z,17.50
2022-10-19T10:04:30.730Z,17.59
2022-10-19T10:05:18.625Z,17.64
2022-10-19T10:06:09.259Z,17.58
2022-10-19T10:06:57.274Z,17.65
2022-10-19T10:07:44.751Z,17.83
2022-10-19T10:08:34.503Z,17.94
2022-10-19T10:09:27.389Z,17.99
2022-10-19T10:10:28.088Z,18.02
2022-10-19T10:11:25.561Z,17.77
2022-10-19T10:12:16.223Z,17.74
2022-10-19T10:13:03.392Z,17.85
2022-10-19T10:13:52.589Z,18.00
2022-10-19T10:14:40.763Z,18.07
2022-10-19T10:15:42.754Z,18.14
2022-10-19T10:16:30.639Z,18.15
2022-10-19T10:17:30.179Z,18.12
2022-10-19T10:18:17.880Z,17.95
2022-10-19T10:19:07.279Z,17.90
2022-10-19T10:20:00.234Z,17.79
2022-10-19T10:21:06.005Z,17.79
2022-10-19T10:21:55.842Z,17.82
2022-10-19T10:22:52.759Z,17.70
2022-10-19T10:23:40.025Z,17.90
2022-10-19T10:24:31.954Z,17.86
2022-10-19T10:25:19.379Z,17.77
2022-10-19T10:26:16.890Z,17.80
2022-10-19T10:27:05.614Z,17.82
2022-10-19T10:28:18.809Z,17.51
2022-10-19T10:29:20.859Z,17.36
2022-10-19T10:30:10.280Z,17.31
2022-10-19T10:31:08.319Z,17.43
2022-10-19T10:32:06.490Z,17.64
2022-10-19T10:32:54.757Z,17.67
2022-10-19T10:33:45.947Z,17.75
2022-10-19T10:35:00.994Z,17.90
2022-10-19T10:35:55.860Z,18.07
2022-10-19T10:36:42.884Z,18.21
2022-10-19T10:37:38.510Z,18.15
2022-10-19T10:38:32.847Z,18.30
2022-10-19T10:39:20.395Z,18.15
2022-10-19T10:40:29.957Z,18.08
2022-10-19T10:41:20.374Z,18.29
2022-10-19T10:42:10.037Z,18.51
2022-10-19T10:43:01.997Z,18.61
2022-10-19T10:43:58.435Z,18.69
2022-10-19T10:44:52.425Z,18.75
2022-10-19T10:45:44.515Z,18.86
2022-10-19T10:46:58.073Z,18.86
2022-10-19T10:47:48.760Z,18.95
2022-10-19T10:48:37.539Z,19.04
2022-10-19T10:49:36.499Z,18.96
2022-10-19T10:50:27.017Z,19.09
2022-10-19T10:51:21.019Z,19.05
2022-10-19T10:52:11.574Z,18.96
2022-10-19T10:53:04.341Z,18.78
2022-10-19T10:53:51.382Z,18.93